createdAt,value
2019-02-05T00:00:15.555Z,0.00
2019-02-05T00:01:15.534Z,0.00
2019-02-05T00:02:15.514Z,0.00
2019-02-05T00:03:15.522Z,0.00
2019-02-05T00:04:15.493Z,0.00
2019-02-05T00:05:15.502Z,0.00
2019-02-05T00:06:15.478Z,0.00
2019-02-05T00:07:15.504Z,0.00
2019-02-05T00:08:15.465Z,0.00
2019-02-05T00:09:15.452Z,0.00
2019-02-05T00:10:15.430Z,0.00
2019-02-05T00:11:15.418Z,0.00
2019-02-05T00:12:15.409Z,0.00
2019-02-05T00:13:15.416Z,0.00
2019-02-05T00:14:15.381Z,0.00
2019-02-05T00:15:15.387Z,0.00
2019-02-05T00:16:15.393Z,0.00
2019-02-05T00:17:15.351Z,0.00
2019-02-05T00:18:15.355Z,0.00
2019-02-05T00:19:15.327Z,0.00
2019-02-05T00:20:15.322Z,0.00
2019-02-05T00:21:15.307Z,0.00
2019-02-05T00:22:15.304Z,0.00
2019-02-05T00:23:15.302Z,0.00
2019-02-05T00:24:15.279Z,0.00
2019-02-05T00:25:15.268Z,0.00
2019-02-05T00:26:15.253Z,0.00
2019-02-05T00:27:15.240Z,0.00
2019-02-05T00:28:15.260Z,0.00
2019-02-05T00:29:15.219Z,0.00
2019-02-05T00:30:15.213Z,0.00
2019-02-05T00:31:15.198Z,0.00
2019-02-05T00:32:15.192Z,0.00
2019-02-05T00:33:15.185Z,0.00
2019-02-05T00:34:15.165Z,0.00
2019-02-05T00:35:15.167Z,0.00
2019-02-05T00:36:15.149Z,0.00
2019-02-05T00:37:15.140Z,0.00
2019-02-05T00:38:15.145Z,0.00
2019-02-05T00:39:15.114Z,0.00
2019-02-05T00:40:15.098Z,0.00
2019-02-05T00:41:15.079Z,0.00
2019-02-05T00:42:15.084Z,0.00
2019-02-05T00:43:15.068Z,0.00
2019-02-05T00:44:15.074Z,0.00
2019-02-05T00:45:15.056Z,0.00
2019-02-05T00:46:15.030Z,0.00
2019-02-05T00:47:15.022Z,0.00
2019-02-05T00:48:15.012Z,0.00
2019-02-05T00:49:15.019Z,0.00
2019-02-05T00:50:14.990Z,0.00
2019-02-05T00:51:14.979Z,0.00
2019-02-05T00:52:14.976Z,0.00
2019-02-05T00:53:14.956Z,0.00
2019-02-05T00:54:15.085Z,0.00
2019-02-05T00:55:14.938Z,0.00
2019-02-05T00:56:17.760Z,0.00
2019-02-05T00:57:14.921Z,0.00
2019-02-05T00:58:14.912Z,0.00
2019-02-05T00:59:15.678Z,0.00
2019-02-05T01:00:14.903Z,0.00
2019-02-05T01:01:15.463Z,0.00
2019-02-05T01:02:14.853Z,0.00
2019-02-05T01:03:14.855Z,0.00
2019-02-05T01:04:14.862Z,0.00
2019-02-05T01:05:14.838Z,0.00
2019-02-05T01:06:14.819Z,0.00
2019-02-05T01:07:14.800Z,0.00
2019-02-05T01:08:14.810Z,0.00
2019-02-05T01:09:14.800Z,0.00
2019-02-05T01:10:14.772Z,0.00
2019-02-05T01:11:14.765Z,0.00
2019-02-05T01:12:14.750Z,0.00
2019-02-05T01:13:14.742Z,0.00
2019-02-05T01:14:14.746Z,0.00
2019-02-05T01:15:14.713Z,0.00
2019-02-05T01:16:14.712Z,0.00
2019-02-05T01:17:14.699Z,0.00
2019-02-05T01:18:14.677Z,0.00
2019-02-05T01:19:14.698Z,0.00
2019-02-05T01:20:14.663Z,0.00
2019-02-05T01:21:14.649Z,0.00
2019-02-05T01:22:14.651Z,0.00
2019-02-05T01:23:14.634Z,0.00
2019-02-05T01:24:14.625Z,0.00
2019-02-05T01:25:14.626Z,0.00
2019-02-05T01:26:14.609Z,0.00
2019-02-05T01:27:14.594Z,0.00
2019-02-05T01:28:14.571Z,0.00
2019-02-05T01:29:14.569Z,0.00
2019-02-05T01:30:14.579Z,0.00
2019-02-05T01:31:14.532Z,0.00
2019-02-05T01:32:14.540Z,0.00
2019-02-05T01:33:14.530Z,0.00
2019-02-05T01:34:14.525Z,0.00
2019-02-05T01:35:14.518Z,0.00
2019-02-05T01:36:14.486Z,0.00
2019-02-05T01:37:14.485Z,0.00
2019-02-05T01:38:14.461Z,0.00
2019-02-05T01:39:14.452Z,0.00
2019-02-05T01:40:14.461Z,0.00
2019-02-05T01:41:14.435Z,0.00
2019-02-05T01:42:14.430Z,0.00
2019-02-05T01:43:14.427Z,0.00
2019-02-05T01:44:14.401Z,0.00
2019-02-05T01:45:14.409Z,0.00
2019-02-05T01:46:14.376Z,0.00
2019-02-05T01:47:14.376Z,0.00
2019-02-05T01:48:14.363Z,0.00
2019-02-05T01:49:14.344Z,0.00
2019-02-05T01:50:14.354Z,0.00
2019-02-05T01:51:14.320Z,0.00
2019-02-05T01:52:14.322Z,0.00
2019-02-05T01:53:14.299Z,0.00
2019-02-05T01:54:14.300Z,0.00
2019-02-05T01:55:14.303Z,0.00
2019-02-05T01:56:14.279Z,0.00
2019-02-05T01:57:14.264Z,0.00
2019-02-05T01:58:14.259Z,0.00
2019-02-05T01:59:14.237Z,0.00
2019-02-05T02:00:14.234Z,0.00
2019-02-05T02:01:14.214Z,0.00
2019-02-05T02:02:14.205Z,0.00
2019-02-05T02:03:14.195Z,0.00
2019-02-05T02:04:14.181Z,0.00
2019-02-05T02:05:14.186Z,0.00
2019-02-05T02:06:14.167Z,0.00
2019-02-05T02:07:14.149Z,0.00
2019-02-05T02:08:14.143Z,0.00
2019-02-05T02:09:14.125Z,0.00
2019-02-05T02:10:14.139Z,0.00
2019-02-05T02:11:14.111Z,0.00
2019-02-05T02:12:14.093Z,0.00
2019-02-05T02:13:14.087Z,0.00
2019-02-05T02:14:14.075Z,0.00
2019-02-05T02:15:14.069Z,0.00
2019-02-05T02:16:14.075Z,0.00
2019-02-05T02:17:14.041Z,0.00
2019-02-05T02:18:14.034Z,0.00
2019-02-05T02:19:14.020Z,0.00
2019-02-05T02:20:14.009Z,0.00
2019-02-05T02:21:14.019Z,0.00
2019-02-05T02:22:13.980Z,0.00
2019-02-05T02:23:13.974Z,0.00
2019-02-05T02:24:13.963Z,0.00
2019-02-05T02:25:13.954Z,0.00
2019-02-05T02:26:13.954Z,0.00
2019-02-05T02:27:13.934Z,0.00
2019-02-05T02:28:13.916Z,0.00
2019-02-05T02:29:13.931Z,0.00
2019-02-05T02:30:13.897Z,0.00
2019-02-05T02:31:13.900Z,0.00
2019-02-05T02:32:13.883Z,0.00
2019-02-05T02:33:13.864Z,0.00
2019-02-05T02:34:13.855Z,0.00
2019-02-05T02:35:13.854Z,0.00
2019-02-05T02:36:13.858Z,0.00
2019-02-05T02:37:13.830Z,0.00
2019-02-05T02:38:13.816Z,0.00
2019-02-05T02:39:13.810Z,0.00
2019-02-05T02:40:13.794Z,0.00
2019-02-05T02:41:13.799Z,0.00
2019-02-05T02:42:13.766Z,0.00
2019-02-05T02:43:13.766Z,0.00
2019-02-05T02:44:13.739Z,0.00
2019-02-05T02:45:13.761Z,0.00
2019-02-05T02:46:13.754Z,0.00
2019-02-05T02:47:13.709Z,0.00
2019-02-05T02:48:13.704Z,0.00
2019-02-05T02:49:13.706Z,0.00
2019-02-05T02:50:13.676Z,0.00
2019-02-05T02:51:13.686Z,0.00
2019-02-05T02:52:13.658Z,0.00
2019-02-05T02:53:13.648Z,0.00
2019-02-05T02:54:13.639Z,0.00
2019-02-05T02:55:13.624Z,0.00
2019-02-05T02:56:13.634Z,0.00
2019-02-05T02:57:13.617Z,0.00
2019-02-05T02:58:13.767Z,0.00
2019-02-05T02:59:13.573Z,0.00
2019-02-05T03:00:13.569Z,0.00
2019-02-05T03:01:13.577Z,0.00
2019-02-05T03:02:13.554Z,0.00
2019-02-05T03:03:13.532Z,0.00
2019-02-05T03:04:13.528Z,0.00
2019-02-05T03:05:13.521Z,0.00
2019-02-05T03:06:13.521Z,0.00
2019-02-05T03:07:13.498Z,0.00
2019-02-05T03:08:13.492Z,0.00
2019-02-05T03:09:13.475Z,0.00
2019-02-05T03:10:13.460Z,0.00
2019-02-05T03:11:13.470Z,0.00
2019-02-05T03:12:13.437Z,0.00
2019-02-05T03:13:13.431Z,0.00
2019-02-05T03:14:13.422Z,0.00
2019-02-05T03:15:13.403Z,0.00
2019-02-05T03:16:13.419Z,0.00
2019-02-05T03:17:13.383Z,0.00
2019-02-05T03:18:13.379Z,0.00
2019-02-05T03:19:13.370Z,0.00
2019-02-05T03:20:13.501Z,0.00
2019-02-05T03:21:13.363Z,0.00
2019-02-05T03:22:13.526Z,0.00
2019-02-05T03:23:13.321Z,0.00
2019-02-05T03:24:13.313Z,0.00
2019-02-05T03:25:13.293Z,0.00
2019-02-05T03:26:13.287Z,0.00
2019-02-05T03:27:17.784Z,0.00
2019-02-05T03:28:14.258Z,0.00
2019-02-05T03:29:13.252Z,0.00
2019-02-05T03:30:13.247Z,0.00
2019-02-05T03:31:13.236Z,0.00
2019-02-05T03:32:13.242Z,0.00
2019-02-05T03:33:13.213Z,0.00
2019-02-05T03:34:13.211Z,0.00
2019-02-05T03:35:13.193Z,0.00
2019-02-05T03:36:13.187Z,0.00
2019-02-05T03:37:13.188Z,0.00
2019-02-05T03:38:13.160Z,0.00
2019-02-05T03:39:13.148Z,0.00
2019-02-05T03:40:13.142Z,0.00
2019-02-05T03:41:13.146Z,0.00
2019-02-05T03:42:13.159Z,0.00
2019-02-05T03:43:13.101Z,0.00
2019-02-05T03:44:13.093Z,0.00
2019-02-05T03:45:13.077Z,0.00
2019-02-05T03:46:13.065Z,0.00
2019-02-05T03:47:13.067Z,0.00
2019-02-05T03:48:13.050Z,0.00
2019-02-05T03:49:13.029Z,0.00
2019-02-05T03:50:13.035Z,0.00
2019-02-05T03:51:13.016Z,0.00
2019-02-05T03:52:13.107Z,0.00
2019-02-05T03:53:12.986Z,0.00
2019-02-05T03:54:12.984Z,0.00
2019-02-05T03:55:12.968Z,0.00
2019-02-05T03:56:12.956Z,0.00
2019-02-05T03:57:12.964Z,0.00
2019-02-05T03:58:12.940Z,0.00
2019-02-05T03:59:12.923Z,0.00
2019-02-05T04:00:12.927Z,0.00
2019-02-05T04:01:12.898Z,0.00
2019-02-05T04:02:12.947Z,0.00
2019-02-05T04:03:12.904Z,0.00
2019-02-05T04:04:12.881Z,0.00
2019-02-05T04:05:12.857Z,0.00
2019-02-05T04:06:12.864Z,0.00
2019-02-05T04:07:12.867Z,0.00
2019-02-05T04:08:12.841Z,0.00
2019-02-05T04:09:12.825Z,0.00
2019-02-05T04:10:12.803Z,0.00
2019-02-05T04:11:12.796Z,0.00
2019-02-05T04:12:12.790Z,0.00
2019-02-05T04:13:12.789Z,0.00
2019-02-05T04:14:12.761Z,0.00
2019-02-05T04:15:12.762Z,0.00
2019-02-05T04:16:12.737Z,0.00
2019-02-05T04:17:12.726Z,0.00
2019-02-05T04:18:12.748Z,0.00
2019-02-05T04:19:12.717Z,0.00
2019-02-05T04:20:12.707Z,0.00
2019-02-05T04:21:12.678Z,0.00
2019-02-05T04:22:12.666Z,0.00
2019-02-05T04:23:12.680Z,0.00
2019-02-05T04:24:12.648Z,0.00
2019-02-05T04:25:12.751Z,0.00
2019-02-05T04:26:12.633Z,0.00
2019-02-05T04:27:12.616Z,0.00
2019-02-05T04:28:12.619Z,0.00
2019-02-05T04:29:12.607Z,0.00
2019-02-05T04:30:12.589Z,0.00
2019-02-05T04:31:12.655Z,0.00
2019-02-05T04:32:12.567Z,0.00
2019-02-05T04:33:12.591Z,0.00
2019-02-05T04:34:12.563Z,0.00
2019-02-05T04:35:12.533Z,0.00
2019-02-05T04:36:12.521Z,0.00
2019-02-05T04:37:12.511Z,0.00
2019-02-05T04:38:12.526Z,0.00
2019-02-05T04:39:12.494Z,0.00
2019-02-05T04:40:12.489Z,0.00
2019-02-05T04:41:12.459Z,0.00
2019-02-05T04:42:12.466Z,0.00
2019-02-05T04:43:12.448Z,0.00
2019-02-05T04:44:12.437Z,0.00
2019-02-05T04:45:12.442Z,0.00
2019-02-05T04:46:12.425Z,0.00
2019-02-05T04:47:12.404Z,0.00
2019-02-05T04:48:12.421Z,0.00
2019-02-05T04:49:12.386Z,0.00
2019-02-05T04:50:12.402Z,0.00
2019-02-05T04:51:12.353Z,0.00
2019-02-05T04:52:12.339Z,0.00
2019-02-05T04:53:12.330Z,0.00
2019-02-05T04:54:12.329Z,0.00
2019-02-05T04:55:12.318Z,0.00
2019-02-05T04:56:12.298Z,0.00
2019-02-05T04:57:12.309Z,0.00
2019-02-05T04:58:12.285Z,0.00
2019-02-05T04:59:12.281Z,0.00
2019-02-05T05:00:12.267Z,0.00
2019-02-05T05:01:12.244Z,0.00
2019-02-05T05:02:12.239Z,0.00
2019-02-05T05:03:12.226Z,0.00
2019-02-05T05:04:12.228Z,0.00
2019-02-05T05:05:12.208Z,0.00
2019-02-05T05:06:12.200Z,0.00
2019-02-05T05:07:12.206Z,0.00
2019-02-05T05:08:12.176Z,0.00
2019-02-05T05:09:12.166Z,0.00
2019-02-05T05:10:12.155Z,0.00
2019-02-05T05:11:12.137Z,0.00
2019-02-05T05:12:12.132Z,0.00
2019-02-05T05:13:12.115Z,0.00
2019-02-05T05:14:12.123Z,0.00
2019-02-05T05:15:12.088Z,0.00
2019-02-05T05:16:12.089Z,0.00
2019-02-05T05:17:12.076Z,0.00
2019-02-05T05:18:15.299Z,0.00
2019-02-05T05:19:12.058Z,0.00
2019-02-05T05:20:12.042Z,0.00
2019-02-05T05:21:12.028Z,0.00
2019-02-05T05:22:12.023Z,0.00
2019-02-05T05:23:12.017Z,0.00
2019-02-05T05:24:12.032Z,0.00
2019-02-05T05:25:11.988Z,0.00
2019-02-05T05:26:11.966Z,0.00
2019-02-05T05:27:11.972Z,0.00
2019-02-05T05:28:11.948Z,0.00
2019-02-05T05:29:11.965Z,0.00
2019-02-05T05:30:11.933Z,0.00
2019-02-05T05:31:11.927Z,0.00
2019-02-05T05:32:11.911Z,0.00
2019-02-05T05:33:11.909Z,0.00
2019-02-05T05:34:11.891Z,0.00
2019-02-05T05:35:11.891Z,0.00
2019-02-05T05:36:11.874Z,0.00
2019-02-05T05:37:11.876Z,0.00
2019-02-05T05:38:11.843Z,0.00
2019-02-05T05:39:11.831Z,0.00
2019-02-05T05:40:11.837Z,0.00
2019-02-05T05:41:11.815Z,0.00
2019-02-05T05:42:11.792Z,0.00
2019-02-05T05:43:11.790Z,0.00
2019-02-05T05:44:11.781Z,0.00
2019-02-05T05:45:11.775Z,0.00
2019-02-05T05:46:11.765Z,0.00
2019-02-05T05:47:11.751Z,0.00
2019-02-05T05:48:11.783Z,0.00
2019-02-05T05:49:11.725Z,0.00
2019-02-05T05:50:11.735Z,0.00
2019-02-05T05:51:11.702Z,0.00
2019-02-05T05:52:11.695Z,0.00
2019-02-05T05:53:11.689Z,0.00
2019-02-05T05:54:11.707Z,0.00
2019-02-05T05:55:11.685Z,0.00
2019-02-05T05:56:11.647Z,0.00
2019-02-05T05:57:11.640Z,0.00
2019-02-05T05:58:22.361Z,0.00
2019-02-05T05:59:12.609Z,0.00
2019-02-05T06:00:11.630Z,0.00
2019-02-05T06:01:11.591Z,0.00
2019-02-05T06:02:11.598Z,0.00
2019-02-05T06:03:11.567Z,0.00
2019-02-05T06:04:11.566Z,0.00
2019-02-05T06:05:11.571Z,0.00
2019-02-05T06:06:11.537Z,0.00
2019-02-05T06:07:11.521Z,0.00
2019-02-05T06:08:11.514Z,0.00
2019-02-05T06:09:11.494Z,0.00
2019-02-05T06:10:11.511Z,0.00
2019-02-05T06:11:11.483Z,0.00
2019-02-05T06:12:11.476Z,0.00
2019-02-05T06:13:11.469Z,0.00
2019-02-05T06:14:11.457Z,0.00
2019-02-05T06:15:11.456Z,0.00
2019-02-05T06:16:11.424Z,0.00
2019-02-05T06:17:11.427Z,0.00
2019-02-05T06:18:11.419Z,0.00
2019-02-05T06:19:11.392Z,0.00
2019-02-05T06:20:11.413Z,0.00
2019-02-05T06:21:13.595Z,0.00
2019-02-05T06:22:11.362Z,0.00
2019-02-05T06:23:11.346Z,0.00
2019-02-05T06:24:11.342Z,0.00
2019-02-05T06:25:11.339Z,0.00
2019-02-05T06:26:11.341Z,0.00
2019-02-05T06:27:11.304Z,0.00
2019-02-05T06:28:11.316Z,0.00
2019-02-05T06:29:11.294Z,0.00
2019-02-05T06:30:11.282Z,0.00
2019-02-05T06:31:11.282Z,0.00
2019-02-05T06:32:11.248Z,0.00
2019-02-05T06:33:11.242Z,0.00
2019-02-05T06:34:11.248Z,0.00
2019-02-05T06:35:11.211Z,0.00
2019-02-05T06:36:11.224Z,0.00
2019-02-05T06:37:11.198Z,0.00
2019-02-05T06:38:11.192Z,0.00
2019-02-05T06:39:11.174Z,0.00
2019-02-05T06:40:11.158Z,0.00
2019-02-05T06:41:11.184Z,0.00
2019-02-05T06:42:11.150Z,0.00
2019-02-05T06:43:11.128Z,0.00
2019-02-05T06:44:11.126Z,0.00
2019-02-05T06:45:11.114Z,0.00
2019-02-05T06:46:11.117Z,0.00
2019-02-05T06:47:11.082Z,0.00
2019-02-05T06:48:11.078Z,0.00
2019-02-05T06:49:11.070Z,0.00
2019-02-05T06:50:11.063Z,0.00
2019-02-05T06:51:11.059Z,0.00
2019-02-05T06:52:11.033Z,0.00
2019-02-05T06:53:11.023Z,0.00
2019-02-05T06:54:11.033Z,0.00
2019-02-05T06:55:11.006Z,0.00
2019-02-05T06:56:11.014Z,0.00
2019-02-05T06:57:10.981Z,0.00
2019-02-05T06:58:10.969Z,0.00
2019-02-05T06:59:10.982Z,0.00
2019-02-05T07:00:10.951Z,0.00
2019-02-05T07:01:10.939Z,0.00
2019-02-05T07:02:10.942Z,0.00
2019-02-05T07:03:10.915Z,0.00
2019-02-05T07:04:10.894Z,0.00
2019-02-05T07:05:10.989Z,0.00
2019-02-05T07:06:10.882Z,0.00
2019-02-05T07:07:10.887Z,0.00
2019-02-05T07:08:10.852Z,0.00
2019-02-05T07:09:10.849Z,0.00
2019-02-05T07:10:10.844Z,0.00
2019-02-05T07:11:10.821Z,0.00
2019-02-05T07:12:10.819Z,0.00
2019-02-05T07:13:10.812Z,0.00
2019-02-05T07:14:10.794Z,0.00
2019-02-05T07:15:10.791Z,0.00
2019-02-05T07:16:10.763Z,0.00
2019-02-05T07:17:10.763Z,0.00
2019-02-05T07:18:10.739Z,0.00
2019-02-05T07:19:10.755Z,0.00
2019-02-05T07:20:10.716Z,0.00
2019-02-05T07:21:10.725Z,0.00
2019-02-05T07:22:10.721Z,0.00
2019-02-05T07:23:10.696Z,0.00
2019-02-05T07:24:10.679Z,5.62
2019-02-05T07:25:10.678Z,5.62
2019-02-05T07:26:10.660Z,5.62
2019-02-05T07:27:10.654Z,5.62
2019-02-05T07:28:10.641Z,5.62
2019-02-05T07:29:10.627Z,0.00
2019-02-05T07:30:10.647Z,0.00
2019-02-05T07:31:10.598Z,5.62
2019-02-05T07:32:10.616Z,5.62
2019-02-05T07:33:10.591Z,5.62
2019-02-05T07:34:10.594Z,5.62
2019-02-05T07:35:10.567Z,5.62
2019-02-05T07:36:10.568Z,5.62
2019-02-05T07:37:10.565Z,5.62
2019-02-05T07:38:10.593Z,5.62
2019-02-05T07:39:10.525Z,5.62
2019-02-05T07:40:10.621Z,5.62
2019-02-05T07:41:10.507Z,5.62
2019-02-05T07:42:10.478Z,5.62
2019-02-05T07:43:10.487Z,5.62
2019-02-05T07:44:10.463Z,5.62
2019-02-05T07:45:10.452Z,5.62
2019-02-05T07:46:10.460Z,5.62
2019-02-05T07:47:10.447Z,5.62
2019-02-05T07:48:10.441Z,5.62
2019-02-05T07:49:10.425Z,5.62
2019-02-05T07:50:10.388Z,5.62
2019-02-05T07:51:10.393Z,5.62
2019-02-05T07:52:10.371Z,5.62
2019-02-05T07:53:10.376Z,11.25
2019-02-05T07:54:10.357Z,11.25
2019-02-05T07:55:10.343Z,11.25
2019-02-05T07:56:12.866Z,11.25
2019-02-05T07:57:10.319Z,11.25
2019-02-05T07:58:10.324Z,11.25
2019-02-05T07:59:10.679Z,11.25
2019-02-05T08:00:10.289Z,11.25
2019-02-05T08:01:10.280Z,11.25
2019-02-05T08:02:10.270Z,11.25
2019-02-05T08:03:10.279Z,11.25
2019-02-05T08:04:10.243Z,11.25
2019-02-05T08:05:10.230Z,11.25
2019-02-05T08:06:10.228Z,11.25
2019-02-05T08:07:10.212Z,11.25
2019-02-05T08:08:10.209Z,11.25
2019-02-05T08:09:10.244Z,11.25
2019-02-05T08:10:10.178Z,11.25
2019-02-05T08:11:10.174Z,11.25
2019-02-05T08:12:10.156Z,11.25
2019-02-05T08:13:10.171Z,11.25
2019-02-05T08:14:10.129Z,11.25
2019-02-05T08:15:10.126Z,5.62
2019-02-05T08:16:10.116Z,5.62
2019-02-05T08:17:10.116Z,11.25
2019-02-05T08:18:10.106Z,11.25
2019-02-05T08:19:10.116Z,11.25
2019-02-05T08:20:10.072Z,11.25
2019-02-05T08:21:10.059Z,5.62
2019-02-05T08:22:10.056Z,11.25
2019-02-05T08:23:10.027Z,11.25
2019-02-05T08:24:10.050Z,11.25
2019-02-05T08:25:10.013Z,11.25
2019-02-05T08:26:10.002Z,11.25
2019-02-05T08:27:09.998Z,11.25
2019-02-05T08:28:09.975Z,11.25
2019-02-05T08:29:21.130Z,11.25
2019-02-05T08:30:10.961Z,11.25
2019-02-05T08:31:09.957Z,11.25
2019-02-05T08:32:09.928Z,11.25
2019-02-05T08:33:09.926Z,11.25
2019-02-05T08:34:09.966Z,5.62
2019-02-05T08:35:09.907Z,5.62
2019-02-05T08:36:09.889Z,5.62
2019-02-05T08:37:09.891Z,5.62
2019-02-05T08:38:09.872Z,11.25
2019-02-05T08:39:09.875Z,11.25
2019-02-05T08:40:09.851Z,5.62
2019-02-05T08:41:09.836Z,5.62
2019-02-05T08:42:09.827Z,5.62
2019-02-05T08:43:09.813Z,5.62
2019-02-05T08:44:09.819Z,11.25
2019-02-05T08:45:09.798Z,16.88
2019-02-05T08:46:09.779Z,16.88
2019-02-05T08:47:09.775Z,16.88
2019-02-05T08:48:09.757Z,16.88
2019-02-05T08:49:09.771Z,11.25
2019-02-05T08:50:09.850Z,16.88
2019-02-05T08:51:09.763Z,11.25
2019-02-05T08:52:09.706Z,11.25
2019-02-05T08:53:09.705Z,11.25
2019-02-05T08:54:09.697Z,11.25
2019-02-05T08:55:09.681Z,5.62
2019-02-05T08:56:09.689Z,11.25
2019-02-05T08:57:09.662Z,11.25
2019-02-05T08:58:09.664Z,11.25
2019-02-05T08:59:09.665Z,11.25
2019-02-05T09:00:09.636Z,5.62
2019-02-05T09:01:09.628Z,5.62
2019-02-05T09:02:09.603Z,5.62
2019-02-05T09:03:09.593Z,5.62
2019-02-05T09:04:09.616Z,11.25
2019-02-05T09:05:09.575Z,11.25
2019-02-05T09:06:09.554Z,11.25
2019-02-05T09:07:09.557Z,11.25
2019-02-05T09:08:09.550Z,11.25
2019-02-05T09:09:09.555Z,11.25
2019-02-05T09:10:09.519Z,11.25
2019-02-05T09:11:09.509Z,11.25
2019-02-05T09:12:09.512Z,11.25
2019-02-05T09:13:09.485Z,11.25
2019-02-05T09:14:10.880Z,11.25
2019-02-05T09:15:09.489Z,11.25
2019-02-05T09:16:09.444Z,11.25
2019-02-05T09:17:09.441Z,11.25
2019-02-05T09:18:09.439Z,11.25
2019-02-05T09:19:09.424Z,16.88
2019-02-05T09:20:09.428Z,16.88
2019-02-05T09:21:09.400Z,16.88
2019-02-05T09:22:09.399Z,16.88
2019-02-05T09:23:09.396Z,16.88
2019-02-05T09:24:09.372Z,16.88
2019-02-05T09:25:09.387Z,16.88
2019-02-05T09:26:09.349Z,16.88
2019-02-05T09:27:09.340Z,11.25
2019-02-05T09:28:09.316Z,11.25
2019-02-05T09:29:09.307Z,16.88
2019-02-05T09:30:09.318Z,16.88
2019-02-05T09:31:09.296Z,16.88
2019-02-05T09:32:09.282Z,16.88
2019-02-05T09:33:09.274Z,16.88
2019-02-05T09:34:09.253Z,16.88
2019-02-05T09:35:09.262Z,16.88
2019-02-05T09:36:09.230Z,16.88
2019-02-05T09:37:09.220Z,16.88
2019-02-05T09:38:09.217Z,16.88
2019-02-05T09:39:09.209Z,16.88
2019-02-05T09:40:09.211Z,11.25
2019-02-05T09:41:09.175Z,11.25
2019-02-05T09:42:09.165Z,11.25
2019-02-05T09:43:09.147Z,11.25
2019-02-05T09:44:09.136Z,16.88
2019-02-05T09:45:09.158Z,11.25
2019-02-05T09:46:09.116Z,16.88
2019-02-05T09:47:09.108Z,16.88
2019-02-05T09:48:09.090Z,11.25
2019-02-05T09:49:09.087Z,11.25
2019-02-05T09:50:09.089Z,11.25
2019-02-05T09:51:09.080Z,11.25
2019-02-05T09:52:09.049Z,11.25
2019-02-05T09:53:09.058Z,11.25
2019-02-05T09:54:09.030Z,11.25
2019-02-05T09:55:09.019Z,11.25
2019-02-05T09:56:09.018Z,11.25
2019-02-05T09:57:08.985Z,11.25
2019-02-05T09:58:08.987Z,11.25
2019-02-05T09:59:08.971Z,11.25
2019-02-05T10:00:09.825Z,11.25
2019-02-05T10:01:08.965Z,11.25
2019-02-05T10:02:08.940Z,11.25
2019-02-05T10:03:08.925Z,11.25
2019-02-05T10:04:08.925Z,11.25
2019-02-05T10:05:08.956Z,11.25
2019-02-05T10:06:08.906Z,11.25
2019-02-05T10:07:08.882Z,11.25
2019-02-05T10:08:08.878Z,11.25
2019-02-05T10:09:08.872Z,11.25
2019-02-05T10:10:08.868Z,11.25
2019-02-05T10:11:08.871Z,11.25
2019-02-05T10:12:08.829Z,11.25
2019-02-05T10:13:08.817Z,11.25
2019-02-05T10:14:08.813Z,11.25
2019-02-05T10:15:08.795Z,11.25
2019-02-05T10:16:08.814Z,11.25
2019-02-05T10:17:08.776Z,11.25
2019-02-05T10:18:08.772Z,11.25
2019-02-05T10:19:08.754Z,11.25
2019-02-05T10:20:08.747Z,11.25
2019-02-05T10:21:08.772Z,11.25
2019-02-05T10:22:08.705Z,11.25
2019-02-05T10:23:08.715Z,11.25
2019-02-05T10:24:08.692Z,16.88
2019-02-05T10:25:08.695Z,11.25
2019-02-05T10:26:08.697Z,11.25
2019-02-05T10:27:08.676Z,11.25
2019-02-05T10:28:08.647Z,11.25
2019-02-05T10:29:08.642Z,11.25
2019-02-05T10:30:08.634Z,11.25
2019-02-05T10:31:08.608Z,11.25
2019-02-05T10:32:08.616Z,16.88
2019-02-05T10:33:08.584Z,16.88
2019-02-05T10:34:08.579Z,16.88
2019-02-05T10:35:08.560Z,16.88
2019-02-05T10:36:08.560Z,16.88
2019-02-05T10:37:08.553Z,16.88
2019-02-05T10:38:08.541Z,16.88
2019-02-05T10:39:08.535Z,16.88
2019-02-05T10:40:08.514Z,16.88
2019-02-05T10:41:08.493Z,16.88
2019-02-05T10:42:08.497Z,11.25
2019-02-05T10:43:08.497Z,16.88
2019-02-05T10:44:08.483Z,16.88
2019-02-05T10:45:08.459Z,16.88
2019-02-05T10:46:08.450Z,16.88
2019-02-05T10:47:08.450Z,16.88
2019-02-05T10:48:08.422Z,16.88
2019-02-05T10:49:08.417Z,16.88
2019-02-05T10:50:08.407Z,16.88
2019-02-05T10:51:08.385Z,16.88
2019-02-05T10:52:08.391Z,16.88
2019-02-05T10:53:08.378Z,16.88
2019-02-05T10:54:08.362Z,16.88
2019-02-05T10:55:08.365Z,16.88
2019-02-05T10:56:08.333Z,16.88
2019-02-05T10:57:08.439Z,16.88
2019-02-05T10:58:08.314Z,16.88
2019-02-05T10:59:08.292Z,16.88
2019-02-05T11:00:09.264Z,16.88
2019-02-05T11:01:08.266Z,16.88
2019-02-05T11:02:08.278Z,16.88
2019-02-05T11:03:08.258Z,16.88
2019-02-05T11:04:08.254Z,16.88
2019-02-05T11:05:08.226Z,16.88
2019-02-05T11:06:08.229Z,16.88
2019-02-05T11:07:08.230Z,16.88
2019-02-05T11:08:08.194Z,16.88
2019-02-05T11:09:08.184Z,16.88
2019-02-05T11:10:08.168Z,16.88
2019-02-05T11:11:08.188Z,16.88
2019-02-05T11:12:08.173Z,16.88
2019-02-05T11:13:08.144Z,22.50
2019-02-05T11:14:08.149Z,22.50
2019-02-05T11:15:08.127Z,22.50
2019-02-05T11:16:08.139Z,22.50
2019-02-05T11:17:08.112Z,22.50
2019-02-05T11:18:08.083Z,22.50
2019-02-05T11:19:08.079Z,22.50
2019-02-05T11:20:08.062Z,22.50
2019-02-05T11:21:08.060Z,22.50
2019-02-05T11:22:08.051Z,22.50
2019-02-05T11:23:08.053Z,22.50
2019-02-05T11:24:08.030Z,22.50
2019-02-05T11:25:08.013Z,22.50
2019-02-05T11:26:08.002Z,28.12
2019-02-05T11:27:07.983Z,28.12
2019-02-05T11:28:07.982Z,28.12
2019-02-05T11:29:07.963Z,28.12
2019-02-05T11:30:07.954Z,28.12
2019-02-05T11:31:07.946Z,28.12
2019-02-05T11:32:07.949Z,28.12
2019-02-05T11:33:07.942Z,28.12
2019-02-05T11:34:07.901Z,28.12
2019-02-05T11:35:07.902Z,28.12
2019-02-05T11:36:07.885Z,28.12
2019-02-05T11:37:07.874Z,28.12
2019-02-05T11:38:07.875Z,28.12
2019-02-05T11:39:07.852Z,28.12
2019-02-05T11:40:07.849Z,28.12
2019-02-05T11:41:07.839Z,28.12
2019-02-05T11:42:07.820Z,28.12
2019-02-05T11:43:07.834Z,28.12
2019-02-05T11:44:07.797Z,22.50
2019-02-05T11:45:07.817Z,22.50
2019-02-05T11:46:07.779Z,22.50
2019-02-05T11:47:07.777Z,22.50
2019-02-05T11:48:07.765Z,28.12
2019-02-05T11:49:07.741Z,28.12
2019-02-05T11:50:07.723Z,33.75
2019-02-05T11:51:07.720Z,33.75
2019-02-05T11:52:09.736Z,33.75
2019-02-05T11:53:07.734Z,33.75
2019-02-05T11:54:07.685Z,28.12
2019-02-05T11:55:07.664Z,28.12
2019-02-05T11:56:07.657Z,28.12
2019-02-05T11:57:07.655Z,28.12
2019-02-05T11:58:07.733Z,28.12
2019-02-05T11:59:07.621Z,28.12
2019-02-05T12:00:07.616Z,28.12
2019-02-05T12:01:07.611Z,28.12
2019-02-05T12:02:07.604Z,28.12
2019-02-05T12:03:07.612Z,28.12
2019-02-05T12:04:07.592Z,28.12
2019-02-05T12:05:07.560Z,28.12
2019-02-05T12:06:07.545Z,28.12
2019-02-05T12:07:07.556Z,28.12
2019-02-05T12:08:07.548Z,28.12
2019-02-05T12:09:07.523Z,22.50
2019-02-05T12:10:07.514Z,28.12
2019-02-05T12:11:07.502Z,33.75
2019-02-05T12:12:07.480Z,33.75
2019-02-05T12:13:07.483Z,33.75
2019-02-05T12:14:07.453Z,33.75
2019-02-05T12:15:07.451Z,28.12
2019-02-05T12:16:07.429Z,28.12
2019-02-05T12:17:07.432Z,28.12
2019-02-05T12:18:07.871Z,28.12
2019-02-05T12:19:07.406Z,22.50
2019-02-05T12:20:07.408Z,33.75
2019-02-05T12:21:07.414Z,28.12
2019-02-05T12:22:07.362Z,28.12
2019-02-05T12:23:07.372Z,28.12
2019-02-05T12:24:07.350Z,28.12
2019-02-05T12:25:07.343Z,33.75
2019-02-05T12:26:07.394Z,28.12
2019-02-05T12:27:07.314Z,33.75
2019-02-05T12:28:07.328Z,33.75
2019-02-05T12:29:07.287Z,33.75
2019-02-05T12:30:07.417Z,33.75
2019-02-05T12:31:07.276Z,33.75
2019-02-05T12:32:07.248Z,33.75
2019-02-05T12:33:07.271Z,33.75
2019-02-05T12:34:07.236Z,33.75
2019-02-05T12:35:07.229Z,39.38
2019-02-05T12:36:07.227Z,33.75
2019-02-05T12:37:07.186Z,33.75
2019-02-05T12:38:07.185Z,33.75
2019-02-05T12:39:07.192Z,33.75
2019-02-05T12:40:07.180Z,33.75
2019-02-05T12:41:07.162Z,33.75
2019-02-05T12:42:07.152Z,39.38
2019-02-05T12:43:07.120Z,33.75
2019-02-05T12:44:07.141Z,39.38
2019-02-05T12:45:07.133Z,39.38
2019-02-05T12:46:07.105Z,33.75
2019-02-05T12:47:07.091Z,39.38
2019-02-05T12:48:07.066Z,33.75
2019-02-05T12:49:07.087Z,33.75
2019-02-05T12:50:07.054Z,33.75
2019-02-05T12:51:07.057Z,28.12
2019-02-05T12:52:07.046Z,33.75
2019-02-05T12:53:07.017Z,33.75
2019-02-05T12:54:07.024Z,33.75
2019-02-05T12:55:13.123Z,33.75
2019-02-05T12:56:08.136Z,28.12
2019-02-05T12:57:06.974Z,28.12
2019-02-05T12:58:06.955Z,28.12
2019-02-05T12:59:06.965Z,28.12
2019-02-05T13:00:06.934Z,33.75
2019-02-05T13:01:06.943Z,28.12
2019-02-05T13:02:06.921Z,28.12
2019-02-05T13:03:06.902Z,28.12
2019-02-05T13:04:06.921Z,28.12
2019-02-05T13:05:06.890Z,33.75
2019-02-05T13:06:06.869Z,33.75
2019-02-05T13:07:06.855Z,22.50
2019-02-05T13:08:06.852Z,22.50